Ava, IL

7:08 PM CDT on August 25, 2019 (GMT -0500)
Hartmann Chicken Farm | | Change Station

Elev 489 ft 38.00 °N, 89.57 °W | Updated 15 seconds ago

Overcast
Overcast
75.6 °F
Feels Like 74 °F
N
0
Wind Variable Wind from NNE
Gusts 0.0 mph

Today
High -- | Low -- °F
--% Chance of Precip.
Yesterday
High -- | Low -- °F
Precip. -- in
Pressure 29.89 in
Visibility 10.0 miles
Clouds Overcast 3300 ft
Heat Index 74 °F
Dew Point 75 °F
Humidity 99%
Rainfall 0.35 in
Snow Depth Not available.
6:21 AM 7:37 PM
Waning Crescent, 26% visible
METAR KMDH 252352Z 13005KT 10SM OVC033 26/22 A2989 RMK AO2 SLP120 60000 T02560222 10272 20250 58002
Pressure 29.89 in
Visibility 10.0 miles
Clouds Overcast 3300 ft
Heat Index 74 °F
Dew Point 75 °F
Humidity 99%
Rainfall 0.35 in
Snow Depth Not available.
6:21 AM 7:37 PM
Waning Crescent, 26% visible
METAR KMDH 252352Z 13005KT 10SM OVC033 26/22 A2989 RMK AO2 SLP120 60000 T02560222 10272 20250 58002

Get Severe Weather Alerts

Thanks for signing up!

Be on the lookout for a verification email in your inbox.

You'll start receiving the daily forecast at 6 AM.

×

10-Day Weather Forecast

Almanac

Astronomy

Aug. 25, 2019 Rise Set
Actual Time
Civil Twilight
Nautical Twilight
Astronomical Twilight
Moon
Length of Visible Light
Length of Day
Tomorrow will be .
, % of the Moon is Illuminated

Today's Extremes

State Highs State Lows

Community

WunderPhotos

Category 6

Welcome to Category 6. This is the collective home for Weather Underground's featured writeups by Dr. Jeff Masters (right), Bob Henson (left), Chris Burt, and other regular contributors.

Nearby

Air Quality

  Air Quality AQ Index Pollutant
Not available.

Snow Depth

Station Depth Elevation

Earthquake Activity

City Distance Mag. Time & Date
Minimum magnitude displayed is 2.5.

Coastal Water Temperatures

Place Temperature

Stations

Nearby Weather Stations

Station Location Temp. Windchill Dew Point Humidity Wind Precip. Elev Updated Type
                   

Watches & Warnings

There are currently no watches in effect.